createdAt,value
2022-12-14T00:01:38.253Z,8.05
2022-12-14T00:04:05.206Z,7.60
2022-12-14T00:06:33.494Z,7.97
2022-12-14T00:09:03.782Z,7.72
2022-12-14T00:11:32.030Z,7.30
2022-12-14T00:14:01.331Z,8.05
2022-12-14T00:16:30.233Z,7.50
2022-12-14T00:18:59.563Z,7.20
2022-12-14T00:21:27.007Z,7.80
2022-12-14T00:23:54.862Z,7.32
2022-12-14T00:26:27.521Z,7.65
2022-12-14T00:28:55.831Z,7.53
2022-12-14T00:31:24.030Z,7.18
2022-12-14T00:33:51.498Z,6.68
2022-12-14T00:36:19.118Z,7.32
2022-12-14T00:38:46.062Z,7.22
2022-12-14T00:41:12.972Z,7.43
2022-12-14T00:43:39.952Z,7.60
2022-12-14T00:46:07.158Z,7.10
2022-12-14T00:48:35.048Z,7.35
2022-12-14T00:51:02.221Z,7.00
2022-12-14T00:53:29.196Z,6.88
2022-12-14T00:55:57.065Z,7.28
2022-12-14T00:58:25.206Z,7.68
2022-12-14T01:01:04.536Z,8.15
2022-12-14T01:03:32.260Z,7.65
2022-12-14T01:05:59.592Z,7.72
2022-12-14T01:08:26.863Z,7.90
2022-12-14T01:10:53.756Z,7.95
2022-12-14T01:13:20.590Z,7.90
2022-12-14T01:15:47.583Z,7.70
2022-12-14T01:18:14.878Z,7.82
2022-12-14T01:20:41.701Z,7.70
2022-12-14T01:23:08.630Z,7.75
2022-12-14T01:25:35.506Z,7.20
2022-12-14T01:28:02.313Z,7.53
2022-12-14T01:30:29.439Z,6.75
2022-12-14T01:32:56.248Z,7.55
2022-12-14T01:35:23.134Z,6.93
2022-12-14T01:37:49.947Z,7.13
2022-12-14T01:40:17.825Z,6.80
2022-12-14T01:42:44.651Z,6.55
2022-12-14T01:45:21.040Z,6.55
2022-12-14T01:47:52.871Z,6.60
2022-12-14T01:50:39.942Z,6.28
2022-12-14T01:53:12.062Z,6.78
2022-12-14T01:55:48.995Z,6.78
2022-12-14T01:58:20.224Z,6.50
2022-12-14T02:00:47.093Z,6.72
2022-12-14T02:03:41.311Z,6.72
2022-12-14T02:06:17.669Z,6.20
2022-12-14T02:08:48.167Z,6.95
2022-12-14T02:11:20.620Z,6.85
2022-12-14T02:13:48.706Z,6.47
2022-12-14T02:16:15.918Z,6.30
2022-12-14T02:18:42.811Z,6.32
2022-12-14T02:21:21.677Z,6.80
2022-12-14T02:24:39.321Z,6.25
2022-12-14T02:27:08.779Z,6.68
2022-12-14T02:29:54.255Z,6.30
2022-12-14T02:32:46.986Z,5.97
2022-12-14T02:35:35.198Z,5.78
2022-12-14T02:38:15.464Z,6.18
2022-12-14T02:41:15.219Z,6.03
2022-12-14T02:44:08.053Z,5.35
2022-12-14T02:46:47.372Z,6.28
2022-12-14T02:49:29.045Z,5.82
2022-12-14T02:52:07.633Z,6.20
2022-12-14T02:54:55.305Z,5.40
2022-12-14T02:57:32.743Z,6.13
2022-12-14T03:00:02.723Z,6.30
2022-12-14T03:02:30.837Z,5.55
2022-12-14T03:04:58.506Z,5.38
2022-12-14T03:07:36.522Z,5.50
2022-12-14T03:10:35.224Z,5.93
2022-12-14T03:13:19.019Z,5.72
2022-12-14T03:15:51.720Z,5.90
2022-12-14T03:18:20.777Z,6.05
2022-12-14T03:20:52.216Z,6.35
2022-12-14T03:23:25.104Z,5.75
2022-12-14T03:25:58.764Z,6.53
2022-12-14T03:28:40.072Z,6.20
2022-12-14T03:31:14.427Z,6.25
2022-12-14T03:33:44.647Z,6.20
2022-12-14T03:36:34.274Z,6.28
2022-12-14T03:39:05.849Z,6.68
2022-12-14T03:42:04.112Z,6.85
2022-12-14T03:44:50.024Z,6.50
2022-12-14T03:47:38.046Z,6.80
2022-12-14T03:50:04.824Z,6.55
2022-12-14T03:52:53.579Z,6.72
2022-12-14T03:55:50.919Z,6.60
2022-12-14T03:58:37.438Z,7.22
2022-12-14T04:01:26.529Z,7.03
2022-12-14T04:03:57.302Z,6.80
2022-12-14T04:06:27.137Z,6.25
2022-12-14T04:09:02.682Z,6.68
2022-12-14T04:11:54.635Z,6.50
2022-12-14T04:14:50.071Z,6.18
2022-12-14T04:17:41.448Z,6.18
2022-12-14T04:20:41.885Z,6.15
2022-12-14T04:23:39.939Z,6.35
2022-12-14T04:26:11.373Z,6.38
2022-12-14T04:29:22.915Z,6.97
2022-12-14T04:31:54.970Z,6.13
2022-12-14T04:34:27.107Z,4.05
2022-12-14T04:36:57.631Z,5.35
2022-12-14T04:39:31.430Z,3.55
2022-12-14T04:42:02.834Z,2.70
2022-12-14T04:44:37.642Z,2.65
2022-12-14T04:47:09.414Z,2.92
2022-12-14T04:49:51.262Z,2.28
2022-12-14T04:52:47.238Z,2.53
2022-12-14T04:55:39.565Z,2.28
2022-12-14T04:58:24.564Z,2.42
2022-12-14T05:00:58.829Z,2.13
2022-12-14T05:03:33.136Z,2.22
2022-12-14T05:06:34.233Z,2.38
2022-12-14T05:09:10.091Z,2.20
2022-12-14T05:11:55.914Z,2.03
2022-12-14T05:14:47.573Z,2.60
2022-12-14T05:17:15.945Z,2.35
2022-12-14T05:19:50.664Z,2.35
2022-12-14T05:22:18.453Z,2.22
2022-12-14T05:24:45.369Z,2.70
2022-12-14T05:27:12.358Z,2.35
2022-12-14T05:29:39.181Z,2.55
2022-12-14T05:32:06.047Z,2.33
2022-12-14T05:34:32.936Z,2.20
2022-12-14T05:36:59.829Z,2.60
2022-12-14T05:39:26.722Z,2.33
2022-12-14T05:41:53.612Z,1.90
2022-12-14T05:44:21.200Z,1.95
2022-12-14T05:46:48.374Z,2.03
2022-12-14T05:49:15.448Z,2.25
2022-12-14T05:51:42.265Z,2.33
2022-12-14T05:54:09.141Z,2.17
2022-12-14T05:56:36.214Z,1.90
2022-12-14T05:59:03.129Z,2.00
2022-12-14T06:01:30.298Z,2.15
2022-12-14T06:03:57.342Z,1.73
2022-12-14T06:06:24.203Z,2.30
2022-12-14T06:08:51.129Z,2.20
2022-12-14T06:11:23.069Z,2.28
2022-12-14T06:13:50.790Z,2.50
2022-12-14T06:16:18.759Z,2.30
2022-12-14T06:18:48.305Z,2.38
2022-12-14T06:21:16.873Z,2.35
2022-12-14T06:23:43.776Z,2.40
2022-12-14T06:26:11.867Z,3.40
2022-12-14T06:28:39.187Z,3.00
2022-12-14T06:31:07.098Z,3.10
2022-12-14T06:33:35.264Z,3.03
2022-12-14T06:36:03.234Z,3.58
2022-12-14T06:38:30.239Z,3.42
2022-12-14T06:40:57.110Z,3.95
2022-12-14T06:43:27.675Z,4.75
2022-12-14T06:45:54.851Z,4.40
2022-12-14T06:48:21.813Z,4.25
2022-12-14T06:50:48.931Z,4.53
2022-12-14T06:53:15.786Z,4.75
2022-12-14T06:55:42.667Z,5.47
2022-12-14T06:58:13.687Z,7.03
2022-12-14T07:00:40.644Z,5.65
2022-12-14T07:03:09.828Z,5.68
2022-12-14T07:05:37.057Z,5.95
2022-12-14T07:08:05.526Z,5.75
2022-12-14T07:10:33.940Z,5.72
2022-12-14T07:13:00.752Z,5.68
2022-12-14T07:15:27.544Z,5.55
2022-12-14T07:17:54.406Z,5.30
2022-12-14T07:20:21.264Z,5.43
2022-12-14T07:22:49.293Z,5.00
2022-12-14T07:25:16.374Z,5.22
2022-12-14T07:27:43.205Z,5.50
2022-12-14T07:30:11.600Z,4.95
2022-12-14T07:32:38.405Z,4.93
2022-12-14T07:35:05.618Z,6.32
2022-12-14T07:37:32.913Z,4.78
2022-12-14T07:39:59.730Z,5.07
2022-12-14T07:42:26.550Z,4.40
2022-12-14T07:44:53.421Z,4.78
2022-12-14T07:47:20.289Z,4.70
2022-12-14T07:49:47.326Z,5.32
2022-12-14T07:52:14.726Z,4.63
2022-12-14T07:54:42.599Z,5.20
2022-12-14T07:57:09.421Z,4.80
2022-12-14T07:59:36.240Z,5.03
2022-12-14T08:02:03.223Z,4.60
2022-12-14T08:04:30.181Z,4.57
2022-12-14T08:06:59.322Z,4.05
2022-12-14T08:09:26.239Z,3.60
2022-12-14T08:11:53.112Z,3.85
2022-12-14T08:14:21.354Z,3.90
2022-12-14T08:16:49.874Z,3.58
2022-12-14T08:19:18.169Z,4.10
2022-12-14T08:21:48.649Z,4.15
2022-12-14T08:24:17.096Z,4.00
2022-12-14T08:26:48.949Z,4.00
2022-12-14T08:29:16.628Z,4.55
2022-12-14T08:31:43.569Z,4.20
2022-12-14T08:34:10.634Z,4.13
2022-12-14T08:36:37.604Z,3.97
2022-12-14T08:39:07.695Z,3.88
2022-12-14T08:41:35.082Z,4.25
2022-12-14T08:44:03.666Z,4.28
2022-12-14T08:46:32.171Z,4.13
2022-12-14T08:48:59.578Z,4.25
2022-12-14T08:51:27.592Z,4.15
2022-12-14T08:53:55.237Z,4.13
2022-12-14T08:56:24.586Z,4.22
2022-12-14T08:58:51.804Z,3.85
2022-12-14T09:01:30.243Z,3.88
2022-12-14T09:04:05.058Z,3.30
2022-12-14T09:06:38.456Z,3.28
2022-12-14T09:09:15.575Z,3.87
2022-12-14T09:11:43.372Z,3.92
2022-12-14T09:14:10.874Z,3.85
2022-12-14T09:16:37.931Z,3.67
2022-12-14T09:19:04.995Z,3.40
2022-12-14T09:21:32.031Z,2.97
2022-12-14T09:23:59.891Z,3.70
2022-12-14T09:26:27.725Z,3.20
2022-12-14T09:28:56.765Z,3.40
2022-12-14T09:31:26.352Z,4.28
2022-12-14T09:33:54.976Z,3.85
2022-12-14T09:36:25.474Z,4.65
2022-12-14T09:38:55.371Z,3.97
2022-12-14T09:41:32.961Z,3.40
2022-12-14T09:44:21.613Z,3.25
2022-12-14T09:47:12.560Z,4.97
2022-12-14T09:49:51.716Z,4.85
2022-12-14T09:52:33.812Z,5.40
2022-12-14T09:55:03.913Z,5.70
2022-12-14T09:57:39.631Z,6.22
2022-12-14T10:00:20.064Z,7.47
2022-12-14T10:02:53.110Z,6.95
2022-12-14T10:05:24.363Z,7.20
2022-12-14T10:08:02.979Z,6.68
2022-12-14T10:10:58.652Z,6.95
2022-12-14T10:13:45.773Z,6.53
2022-12-14T10:16:15.625Z,6.72
2022-12-14T10:19:20.153Z,6.38
2022-12-14T10:22:21.015Z,6.28
2022-12-14T10:25:22.681Z,5.32
2022-12-14T10:28:12.382Z,5.57
2022-12-14T10:30:42.425Z,6.10
2022-12-14T10:33:41.317Z,6.32
2022-12-14T10:36:34.448Z,6.10
2022-12-14T10:39:06.386Z,5.65
2022-12-14T10:41:55.923Z,5.25
2022-12-14T10:44:51.506Z,5.47
2022-12-14T10:47:40.030Z,5.07
2022-12-14T10:50:19.575Z,5.25
2022-12-14T10:52:49.986Z,5.00
2022-12-14T10:55:48.758Z,5.07
2022-12-14T10:58:15.606Z,4.70
2022-12-14T11:00:42.418Z,5.15
2022-12-14T11:03:15.752Z,5.47
2022-12-14T11:06:07.585Z,5.25
2022-12-14T11:08:49.598Z,5.30
2022-12-14T11:11:23.686Z,5.78
2022-12-14T11:14:06.438Z,5.47
2022-12-14T11:16:38.731Z,4.70
2022-12-14T11:19:18.407Z,5.78
2022-12-14T11:21:45.931Z,5.78
2022-12-14T11:24:25.085Z,5.97
2022-12-14T11:26:54.817Z,5.32
2022-12-14T11:29:29.845Z,5.55
2022-12-14T11:31:57.193Z,5.68
2022-12-14T11:34:23.964Z,6.10
2022-12-14T11:36:50.918Z,6.53
2022-12-14T11:39:23.629Z,6.18
2022-12-14T11:42:01.019Z,6.05
2022-12-14T11:44:36.080Z,5.95
2022-12-14T11:47:12.626Z,6.32
2022-12-14T11:49:41.471Z,6.63
2022-12-14T11:52:45.550Z,6.07
2022-12-14T11:55:26.968Z,6.30
2022-12-14T11:57:59.745Z,6.35
2022-12-14T12:00:43.877Z,6.05
2022-12-14T12:03:31.258Z,7.40
2022-12-14T12:06:05.889Z,7.30
2022-12-14T12:08:36.545Z,7.07
2022-12-14T12:11:14.180Z,7.18
2022-12-14T12:13:45.014Z,6.22
2022-12-14T12:16:21.509Z,6.70
2022-12-14T12:19:13.022Z,6.43
2022-12-14T12:21:44.854Z,6.55
2022-12-14T12:24:15.104Z,7.88
2022-12-14T12:27:02.821Z,6.35
2022-12-14T12:29:55.433Z,6.70
2022-12-14T12:32:26.997Z,6.30
2022-12-14T12:35:21.244Z,6.15
2022-12-14T12:37:55.331Z,6.40
2022-12-14T12:43:22.409Z,5.47
2022-12-14T12:46:02.725Z,6.15
2022-12-14T12:48:43.476Z,5.60
2022-12-14T12:51:19.083Z,5.72
2022-12-14T12:53:50.293Z,5.43
2022-12-14T12:56:27.053Z,5.25
2022-12-14T12:58:55.143Z,5.57
2022-12-14T13:01:25.131Z,5.78
2022-12-14T13:03:57.272Z,6.78
2022-12-14T13:06:30.818Z,6.88
2022-12-14T13:09:01.202Z,8.45
2022-12-14T13:11:36.098Z,6.25
2022-12-14T13:14:30.596Z,5.18
2022-12-14T13:16:59.954Z,5.22
2022-12-14T13:19:54.520Z,5.18
2022-12-14T13:22:33.409Z,4.15
2022-12-14T13:25:10.933Z,2.10
2022-12-14T13:28:24.036Z,41.55
2022-12-14T13:30:56.945Z,12.82
2022-12-14T13:33:55.709Z,6.35
2022-12-14T13:36:51.950Z,2.90
2022-12-14T13:39:36.890Z,1.40
2022-12-14T13:42:18.078Z,1.50
2022-12-14T13:45:03.865Z,1.80
2022-12-14T13:47:44.959Z,1.75
2022-12-14T13:50:39.768Z,1.83
2022-12-14T13:53:50.468Z,2.20
2022-12-14T13:56:32.485Z,2.08
2022-12-14T13:59:03.316Z,2.00
2022-12-14T14:01:48.629Z,2.22
2022-12-14T14:04:29.951Z,4.05
2022-12-14T14:07:22.515Z,1.58
2022-12-14T14:09:55.477Z,1.58
2022-12-14T14:12:43.862Z,2.60
2022-12-14T14:15:26.283Z,1.40
2022-12-14T14:17:54.318Z,1.90
2022-12-14T14:20:53.785Z,1.60
2022-12-14T14:23:31.589Z,3.78
2022-12-14T14:26:19.590Z,16.48
2022-12-14T14:28:49.562Z,11.30
2022-12-14T14:31:16.618Z,4.90
2022-12-14T14:33:51.191Z,3.22
2022-12-14T14:36:36.039Z,2.67
2022-12-14T14:39:24.371Z,4.90
2022-12-14T14:41:54.493Z,2.40
2022-12-14T14:44:59.793Z,8.90
2022-12-14T14:47:31.666Z,5.93
2022-12-14T14:50:15.891Z,1.88
2022-12-14T14:52:42.735Z,2.58
2022-12-14T14:55:53.234Z,2.92
2022-12-14T14:58:22.418Z,3.60
2022-12-14T15:01:03.496Z,4.85
2022-12-14T15:03:45.131Z,5.43
2022-12-14T15:06:17.769Z,6.57
2022-12-14T15:09:03.416Z,5.43
2022-12-14T15:11:36.342Z,4.00
2022-12-14T15:14:16.507Z,4.20
2022-12-14T15:16:45.732Z,5.38
2022-12-14T15:19:37.067Z,6.63
2022-12-14T15:22:06.925Z,4.82
2022-12-14T15:24:42.207Z,4.15
2022-12-14T15:27:25.053Z,4.05
2022-12-14T15:29:52.501Z,3.63
2022-12-14T15:32:23.606Z,4.25
2022-12-14T15:35:00.281Z,4.53
2022-12-14T15:37:27.063Z,4.13
2022-12-14T15:40:25.303Z,3.80
2022-12-14T15:42:54.687Z,3.65
2022-12-14T15:45:34.790Z,3.58
2022-12-14T15:48:24.680Z,3.65
2022-12-14T15:50:58.834Z,4.13
2022-12-14T15:53:36.619Z,4.50
2022-12-14T15:56:19.230Z,4.35
2022-12-14T15:58:46.340Z,6.00
2022-12-14T16:01:37.731Z,5.10
2022-12-14T16:04:12.004Z,4.43
2022-12-14T16:06:42.971Z,4.70
2022-12-14T16:09:27.359Z,3.85
2022-12-14T16:14:46.041Z,3.78
2022-12-14T16:17:16.467Z,3.30
2022-12-14T16:19:59.546Z,4.05
2022-12-14T16:22:29.449Z,3.93
2022-12-14T16:25:08.410Z,3.60
2022-12-14T16:27:40.515Z,3.10
2022-12-14T16:30:34.315Z,2.58
2022-12-14T16:33:19.477Z,2.60
2022-12-14T16:35:57.718Z,2.67
2022-12-14T16:38:24.486Z,2.55
2022-12-14T16:41:02.903Z,2.30
2022-12-14T16:43:35.249Z,3.15
2022-12-14T16:46:05.077Z,2.83
2022-12-14T16:48:33.398Z,2.85
2022-12-14T16:51:28.601Z,3.40
2022-12-14T16:54:20.858Z,3.83
2022-12-14T16:56:48.267Z,3.05
2022-12-14T16:59:25.394Z,2.20
2022-12-14T17:01:52.479Z,2.30
2022-12-14T17:04:21.006Z,1.90
2022-12-14T17:06:56.131Z,1.90
2022-12-14T17:09:26.355Z,2.25
2022-12-14T17:11:57.514Z,2.50
2022-12-14T17:14:24.427Z,2.80
2022-12-14T17:17:04.699Z,2.80
2022-12-14T17:19:36.674Z,3.08
2022-12-14T17:22:06.719Z,3.10
2022-12-14T17:24:36.759Z,2.88
2022-12-14T17:27:05.229Z,3.60
2022-12-14T17:29:33.391Z,3.63
2022-12-14T17:32:02.826Z,3.83
2022-12-14T17:34:30.628Z,3.92
2022-12-14T17:36:57.700Z,3.95
2022-12-14T17:39:24.969Z,4.05
2022-12-14T17:41:52.403Z,3.97
2022-12-14T17:44:20.824Z,4.40
2022-12-14T17:46:52.179Z,4.40
2022-12-14T17:49:34.038Z,3.92
2022-12-14T17:52:06.984Z,4.07
2022-12-14T17:54:34.292Z,4.03
2022-12-14T17:57:01.708Z,3.47
2022-12-14T17:59:28.645Z,4.10
2022-12-14T18:01:55.554Z,4.07
2022-12-14T18:04:22.453Z,4.35
2022-12-14T18:06:49.265Z,4.90
2022-12-14T18:09:18.446Z,5.60
2022-12-14T18:12:06.599Z,4.93
2022-12-14T18:14:32.229Z,5.00
2022-12-14T18:17:00.996Z,6.20
2022-12-14T18:19:29.878Z,6.28
2022-12-14T18:21:56.765Z,6.25
2022-12-14T18:24:26.050Z,7.20
2022-12-14T18:26:53.190Z,7.95
2022-12-14T18:29:20.408Z,7.88
2022-12-14T18:31:49.433Z,6.85
2022-12-14T18:34:16.849Z,7.68
2022-12-14T18:36:43.709Z,8.98
2022-12-14T18:39:10.542Z,8.90
2022-12-14T18:41:37.380Z,8.45
2022-12-14T18:44:04.287Z,8.70
2022-12-14T18:46:31.512Z,8.45
2022-12-14T18:48:58.413Z,7.22
2022-12-14T18:51:26.829Z,7.80
2022-12-14T18:53:55.734Z,7.63
2022-12-14T18:56:23.815Z,8.32
2022-12-14T18:58:51.681Z,8.43
2022-12-14T19:01:22.052Z,7.60
2022-12-14T19:03:50.733Z,10.45
2022-12-14T19:09:10.026Z,8.25
2022-12-14T19:11:39.469Z,7.68
2022-12-14T19:14:08.117Z,7.40
2022-12-14T19:16:35.032Z,6.78
2022-12-14T19:19:01.943Z,10.15
2022-12-14T19:21:32.116Z,7.78
2022-12-14T19:23:59.950Z,8.75
2022-12-14T19:26:28.458Z,8.73
2022-12-14T19:28:55.953Z,8.75
2022-12-14T19:31:23.248Z,9.32
2022-12-14T19:33:50.160Z,9.95
2022-12-14T19:36:17.147Z,10.07
2022-12-14T19:38:45.068Z,9.27
2022-12-14T19:41:17.864Z,9.82
2022-12-14T19:43:47.367Z,9.20
2022-12-14T19:46:15.664Z,8.90
2022-12-14T19:48:42.580Z,9.82
2022-12-14T19:51:12.939Z,10.00
2022-12-14T19:53:42.645Z,9.88
2022-12-14T19:56:10.003Z,9.43
2022-12-14T19:58:36.952Z,10.02
2022-12-14T20:01:11.571Z,9.15
2022-12-14T20:03:39.263Z,9.30
2022-12-14T20:06:08.490Z,8.07
2022-12-14T20:08:36.489Z,6.78
2022-12-14T20:11:08.717Z,6.85
2022-12-14T20:13:35.726Z,6.55
2022-12-14T20:16:02.775Z,5.93
2022-12-14T20:18:30.939Z,5.05
2022-12-14T20:21:02.930Z,5.05
2022-12-14T20:23:31.324Z,4.82
2022-12-14T20:26:03.259Z,4.55
2022-12-14T20:28:30.111Z,4.47
2022-12-14T20:30:57.069Z,4.57
2022-12-14T20:33:29.542Z,8.02
2022-12-14T20:35:57.444Z,5.95
2022-12-14T20:38:24.530Z,5.20
2022-12-14T20:40:51.486Z,4.50
2022-12-14T20:43:18.356Z,4.20
2022-12-14T20:45:45.217Z,4.38
2022-12-14T20:48:12.353Z,4.13
2022-12-14T20:50:41.657Z,5.75
2022-12-14T20:53:08.896Z,6.88
2022-12-14T20:55:35.899Z,8.88
2022-12-14T20:58:03.733Z,5.75
2022-12-14T21:00:30.674Z,6.47
2022-12-14T21:02:57.898Z,7.28
2022-12-14T21:05:25.304Z,8.45
2022-12-14T21:07:52.905Z,13.45
2022-12-14T21:10:19.910Z,14.68
2022-12-14T21:12:49.806Z,18.30
2022-12-14T21:15:16.870Z,14.32
2022-12-14T21:17:44.739Z,9.15
2022-12-14T21:20:12.802Z,6.97
2022-12-14T21:22:39.582Z,6.80
2022-12-14T21:25:07.438Z,6.63
2022-12-14T21:27:38.410Z,6.45
2022-12-14T21:30:10.654Z,6.47
2022-12-14T21:32:38.436Z,6.85
2022-12-14T21:35:05.813Z,7.00
2022-12-14T21:37:32.716Z,8.15
2022-12-14T21:40:02.935Z,11.57
2022-12-14T21:42:29.743Z,8.00
2022-12-14T21:44:57.660Z,11.05
2022-12-14T21:47:29.411Z,10.27
2022-12-14T21:49:56.806Z,6.15
2022-12-14T21:52:25.795Z,6.38
2022-12-14T21:54:52.693Z,6.45
2022-12-14T21:57:40.646Z,7.45
2022-12-14T22:00:09.731Z,8.52
2022-12-14T22:02:36.638Z,9.35
2022-12-14T22:05:04.630Z,7.13
2022-12-14T22:07:33.800Z,6.57
2022-12-14T22:10:00.866Z,6.90
2022-12-14T22:12:28.058Z,7.05
2022-12-14T22:14:55.086Z,7.20
2022-12-14T22:17:21.903Z,6.78
2022-12-14T22:19:50.998Z,7.13
2022-12-14T22:22:18.081Z,6.70
2022-12-14T22:24:47.678Z,7.20
2022-12-14T22:27:14.994Z,7.05
2022-12-14T22:29:41.961Z,7.03
2022-12-14T22:32:11.809Z,6.07
2022-12-14T22:34:38.751Z,6.82
2022-12-14T22:37:05.988Z,7.03
2022-12-14T22:39:32.822Z,6.65
2022-12-14T22:41:59.801Z,6.60
2022-12-14T22:44:26.828Z,8.18
2022-12-14T22:46:53.770Z,7.47
2022-12-14T22:49:20.669Z,7.18
2022-12-14T22:51:47.605Z,7.03
2022-12-14T22:54:26.019Z,6.88
2022-12-14T22:57:02.842Z,6.57
2022-12-14T22:59:43.765Z,6.50
2022-12-14T23:02:10.942Z,6.68
2022-12-14T23:04:38.809Z,6.28
2022-12-14T23:07:06.236Z,6.43
2022-12-14T23:09:51.839Z,6.45
2022-12-14T23:12:37.380Z,6.35
2022-12-14T23:15:23.140Z,6.53
2022-12-14T23:18:08.469Z,7.10
2022-12-14T23:20:57.236Z,7.10
2022-12-14T23:23:42.686Z,6.95
2022-12-14T23:26:28.038Z,7.15
2022-12-14T23:29:13.407Z,6.95
2022-12-14T23:31:58.730Z,6.40
2022-12-14T23:34:44.375Z,6.57
2022-12-14T23:37:33.108Z,7.10
2022-12-14T23:40:18.601Z,7.50
2022-12-14T23:43:04.113Z,7.00
2022-12-14T23:45:49.597Z,6.50
2022-12-14T23:48:34.997Z,6.85
2022-12-14T23:51:20.491Z,6.82
2022-12-14T23:54:05.921Z,7.25
2022-12-14T23:56:51.573Z,7.22
2022-12-14T23:59:36.807Z,7.28
